createdAt,value
2018-04-23T00:00:43.739Z,94904.66
2018-04-23T00:03:12.115Z,94905.17
2018-04-23T00:05:40.483Z,94900.88
2018-04-23T00:08:08.862Z,94905.73
2018-04-23T00:10:37.225Z,94902.87
2018-04-23T00:13:05.612Z,94900.34
2018-04-23T00:15:33.995Z,94898.62
2018-04-23T00:18:02.400Z,94895.63
2018-04-23T00:20:30.779Z,94892.61
2018-04-23T00:22:59.169Z,94889.64
2018-04-23T00:25:27.753Z,94891.39
2018-04-23T00:27:56.136Z,94894.31
2018-04-23T00:30:24.543Z,94888.41
2018-04-23T00:32:52.975Z,94890.98
2018-04-23T00:35:21.358Z,94889.78
2018-04-23T00:37:49.736Z,94888.69
2018-04-23T00:40:18.106Z,94891.47
2018-04-23T00:42:46.524Z,94884.17
2018-04-23T00:45:14.910Z,94879.87
2018-04-23T00:47:43.347Z,94878.73
2018-04-23T00:50:11.720Z,94878.67
2018-04-23T00:52:40.129Z,94882.45
2018-04-23T00:55:08.526Z,94888.94
2018-04-23T00:57:36.910Z,94883.03
2018-04-23T01:00:06.541Z,94896.28
2018-04-23T01:02:34.930Z,94896.71
2018-04-23T01:05:03.298Z,94896.45
2018-04-23T01:07:31.704Z,94892.80
2018-04-23T01:10:00.091Z,94899.20
2018-04-23T01:12:28.475Z,94893.30
2018-04-23T01:14:56.872Z,94895.22
2018-04-23T01:17:25.244Z,94896.84
2018-04-23T01:19:53.798Z,94896.64
2018-04-23T01:22:22.199Z,94893.69
2018-04-23T01:24:50.567Z,94892.69
2018-04-23T01:27:19.414Z,94897.46
2018-04-23T01:29:47.790Z,94898.81
2018-04-23T01:32:16.154Z,94892.67
2018-04-23T01:34:44.526Z,94896.41
2018-04-23T01:37:12.940Z,94899.20
2018-04-23T01:39:41.369Z,94894.70
2018-04-23T01:42:09.749Z,94895.25
2018-04-23T01:44:38.372Z,94895.09
2018-04-23T01:47:06.749Z,94898.03
2018-04-23T01:49:35.625Z,94893.07
2018-04-23T01:52:04.921Z,94889.66
2018-04-23T01:54:33.300Z,94896.56
2018-04-23T01:57:01.670Z,94900.01
2018-04-23T01:59:30.081Z,94891.48
2018-04-23T02:01:58.489Z,94901.81
2018-04-23T02:04:26.867Z,94903.70
2018-04-23T02:06:55.239Z,94908.57
2018-04-23T02:09:23.616Z,94915.02
2018-04-23T02:11:51.992Z,94908.70
2018-04-23T02:14:20.371Z,94913.33
2018-04-23T02:16:48.740Z,94914.91
2018-04-23T02:19:17.099Z,94913.65
2018-04-23T02:21:45.566Z,94912.25
2018-04-23T02:24:13.944Z,94918.14
2018-04-23T02:26:42.319Z,94914.77
2018-04-23T02:29:10.460Z,94914.44
2018-04-23T02:31:38.827Z,94919.63
2018-04-23T02:34:07.218Z,94920.21
2018-04-23T02:36:35.599Z,94913.11
2018-04-23T02:39:03.501Z,94915.52
2018-04-23T02:41:31.879Z,94920.09
2018-04-23T02:44:00.023Z,94909.66
2018-04-23T02:46:29.179Z,94912.02
2018-04-23T02:48:57.560Z,94910.91
2018-04-23T02:51:25.935Z,94911.83
2018-04-23T02:53:54.306Z,94911.98
2018-04-23T02:56:22.716Z,94915.62
2018-04-23T02:58:51.128Z,94912.33
2018-04-23T03:01:19.549Z,94913.11
2018-04-23T03:03:47.942Z,94913.47
2018-04-23T03:06:16.323Z,94910.63
2018-04-23T03:08:44.724Z,94913.42
2018-04-23T03:11:13.088Z,94911.80
2018-04-23T03:13:41.486Z,94916.28
2018-04-23T03:16:09.639Z,94914.56
2018-04-23T03:18:38.051Z,94921.27
2018-04-23T03:21:06.418Z,94921.37
2018-04-23T03:23:34.794Z,94929.56
2018-04-23T03:26:03.194Z,94926.13
2018-04-23T03:28:31.557Z,94936.39
2018-04-23T03:30:59.970Z,94933.91
2018-04-23T03:33:28.339Z,94927.72
2018-04-23T03:35:56.761Z,94929.44
2018-04-23T03:38:25.130Z,94931.56
2018-04-23T03:40:53.552Z,94933.48
2018-04-23T03:43:21.925Z,94936.12
2018-04-23T03:45:50.426Z,94945.88
2018-04-23T03:48:18.841Z,94948.12
2018-04-23T03:50:47.224Z,94941.94
2018-04-23T03:53:15.590Z,94940.22
2018-04-23T03:55:43.974Z,94945.89
2018-04-23T03:58:12.378Z,94941.84
2018-04-23T04:00:40.805Z,94942.65
2018-04-23T04:03:09.189Z,94954.80
2018-04-23T04:05:37.602Z,94944.27
2018-04-23T04:08:05.984Z,94946.69
2018-04-23T04:10:34.393Z,94940.37
2018-04-23T04:13:14.068Z,94946.13
2018-04-23T04:15:53.766Z,94945.20
2018-04-23T04:18:34.164Z,94948.06
2018-04-23T04:21:02.536Z,94951.08
2018-04-23T04:23:32.298Z,94945.92
2018-04-23T04:26:00.709Z,94946.11
2018-04-23T04:28:29.103Z,94944.30
2018-04-23T04:30:57.245Z,94945.61
2018-04-23T04:33:25.611Z,94941.97
2018-04-23T04:35:53.988Z,94942.75
2018-04-23T04:38:23.543Z,94943.11
2018-04-23T04:40:51.971Z,94952.16
2018-04-23T04:43:20.400Z,94953.34
2018-04-23T04:45:48.814Z,94960.39
2018-04-23T04:48:17.187Z,94955.45
2018-04-23T04:50:45.556Z,94951.68
2018-04-23T04:53:13.917Z,94949.08
2018-04-23T04:55:42.289Z,94953.53
2018-04-23T04:58:10.711Z,94952.36
2018-04-23T05:00:39.133Z,94950.52
2018-04-23T05:03:07.525Z,94951.86
2018-04-23T05:05:35.902Z,94952.89
2018-04-23T05:08:04.281Z,94949.20
2018-04-23T05:10:32.694Z,94953.50
2018-04-23T05:13:01.063Z,94951.51
2018-04-23T05:15:29.438Z,94953.50
2018-04-23T05:17:57.838Z,94958.28
2018-04-23T05:20:26.230Z,94960.80
2018-04-23T05:22:54.637Z,94961.22
2018-04-23T05:25:23.014Z,94963.56
2018-04-23T05:27:51.463Z,94962.81
2018-04-23T05:30:19.834Z,94970.70
2018-04-23T05:32:48.216Z,94963.34
2018-04-23T05:35:16.606Z,94968.27
2018-04-23T05:37:44.991Z,94970.22
2018-04-23T05:40:13.358Z,94976.34
2018-04-23T05:42:41.523Z,94972.44
2018-04-23T05:45:09.927Z,94971.26
2018-04-23T05:47:38.326Z,94966.26
2018-04-23T05:50:06.708Z,94971.21
2018-04-23T05:52:35.111Z,94965.05
2018-04-23T05:55:03.538Z,94971.63
2018-04-23T05:57:32.099Z,94970.52
2018-04-23T06:00:00.518Z,94968.86
2018-04-23T06:02:28.896Z,94973.47
2018-04-23T06:04:57.286Z,94972.93
2018-04-23T06:07:25.687Z,94965.79
2018-04-23T06:09:54.112Z,94964.19
2018-04-23T06:12:22.489Z,94964.65
2018-04-23T06:14:51.405Z,94969.83
2018-04-23T06:17:19.806Z,94960.83
2018-04-23T06:19:48.199Z,94957.20
2018-04-23T06:22:16.579Z,94957.20
2018-04-23T06:24:45.006Z,94957.50
2018-04-23T06:27:13.424Z,94958.87
2018-04-23T06:29:41.818Z,94954.85
2018-04-23T06:32:10.214Z,94955.75
2018-04-23T06:34:38.617Z,94951.05
2018-04-23T06:37:06.982Z,94946.48
2018-04-23T06:39:35.217Z,94942.44
2018-04-23T06:42:03.643Z,94946.53
2018-04-23T06:44:32.271Z,94954.84
2018-04-23T06:47:00.667Z,94953.16
2018-04-23T06:49:29.052Z,94951.18
2018-04-23T06:51:57.421Z,94952.84
2018-04-23T06:54:25.851Z,94948.33
2018-04-23T06:56:54.262Z,94949.94
2018-04-23T06:59:22.436Z,94941.88
2018-04-23T07:01:50.869Z,94950.34
2018-04-23T07:04:19.479Z,94948.94
2018-04-23T07:06:47.870Z,94948.38
2018-04-23T07:09:16.305Z,94949.52
2018-04-23T07:11:44.695Z,94947.50
2018-04-23T07:14:13.129Z,94947.70
2018-04-23T07:16:41.522Z,94958.57
2018-04-23T07:19:10.055Z,94949.26
2018-04-23T07:21:38.439Z,94959.41
2018-04-23T07:24:06.875Z,94959.52
2018-04-23T07:26:35.439Z,94955.13
2018-04-23T07:29:03.811Z,94954.12
2018-04-23T07:31:31.996Z,94957.14
2018-04-23T07:34:00.402Z,94956.41
2018-04-23T07:36:28.807Z,94960.98
2018-04-23T07:38:57.236Z,94956.55
2018-04-23T07:41:25.617Z,94967.56
2018-04-23T07:43:53.999Z,94963.67
2018-04-23T07:46:22.155Z,94963.86
2018-04-23T07:48:50.831Z,94966.74
2018-04-23T07:51:19.395Z,94968.16
2018-04-23T07:53:47.783Z,94967.75
2018-04-23T07:56:16.159Z,94972.33
2018-04-23T07:58:44.584Z,94971.92
2018-04-23T08:01:12.971Z,94974.39
2018-04-23T08:03:41.369Z,94978.95
2018-04-23T08:06:09.752Z,94983.84
2018-04-23T08:08:38.192Z,94970.04
2018-04-23T08:11:06.587Z,94974.50
2018-04-23T08:13:34.997Z,94980.77
2018-04-23T08:16:03.382Z,94976.58
2018-04-23T08:18:31.924Z,94975.47
2018-04-23T08:21:00.307Z,94977.06
2018-04-23T08:23:28.690Z,94971.36
2018-04-23T08:25:57.131Z,94974.64
2018-04-23T08:28:25.532Z,94982.66
2018-04-23T08:30:53.984Z,94971.75
2018-04-23T08:33:22.380Z,94972.59
2018-04-23T08:35:50.820Z,94971.91
2018-04-23T08:38:19.201Z,94966.20
2018-04-23T08:40:47.620Z,94957.94
2018-04-23T08:43:16.051Z,94972.88
2018-04-23T08:45:44.442Z,94964.36
2018-04-23T08:48:12.822Z,94959.55
2018-04-23T08:50:41.383Z,94957.44
2018-04-23T08:53:09.802Z,94963.98
2018-04-23T08:55:38.227Z,94957.35
2018-04-23T08:58:06.618Z,94949.86
2018-04-23T09:00:35.030Z,94945.72
2018-04-23T09:03:03.464Z,94944.11
2018-04-23T09:05:32.055Z,94942.77
2018-04-23T09:08:00.434Z,94938.06
2018-04-23T09:10:28.814Z,94935.13
2018-04-23T09:12:57.184Z,94932.85
2018-04-23T09:15:25.588Z,94934.30
2018-04-23T09:17:54.006Z,94927.48
2018-04-23T09:20:22.545Z,94931.90
2018-04-23T09:22:50.932Z,94923.88
2018-04-23T09:25:19.355Z,94918.23
2018-04-23T09:27:48.908Z,94928.62
2018-04-23T09:30:17.348Z,94922.21
2018-04-23T09:32:45.770Z,94917.27
2018-04-23T09:35:14.166Z,94919.53
2018-04-23T09:37:42.567Z,94916.33
2018-04-23T09:40:11.001Z,94909.73
2018-04-23T09:42:39.375Z,94908.90
2018-04-23T09:45:07.582Z,94916.78
2018-04-23T09:47:35.998Z,94908.45
2018-04-23T09:50:04.377Z,94909.91
2018-04-23T09:52:32.763Z,94908.59
2018-04-23T09:55:01.134Z,94900.59
2018-04-23T09:57:29.543Z,94902.56
2018-04-23T09:59:57.920Z,94896.81
2018-04-23T10:02:26.053Z,94896.77
2018-04-23T10:04:54.496Z,94896.56
2018-04-23T10:07:23.114Z,94893.33
2018-04-23T10:09:51.531Z,94887.13
2018-04-23T10:12:19.996Z,94889.72
2018-04-23T10:14:48.386Z,94880.38
2018-04-23T10:17:16.777Z,94878.87
2018-04-23T10:19:45.226Z,94878.34
2018-04-23T10:22:13.649Z,94871.06
2018-04-23T10:24:42.032Z,94880.44
2018-04-23T10:27:10.546Z,94874.20
2018-04-23T10:29:38.934Z,94874.98
2018-04-23T10:32:07.360Z,94871.64
2018-04-23T10:34:35.787Z,94868.77
2018-04-23T10:37:04.199Z,94868.95
2018-04-23T10:39:32.612Z,94863.06
2018-04-23T10:42:01.063Z,94868.68
2018-04-23T10:44:29.506Z,94860.24
2018-04-23T10:46:57.907Z,94854.33
2018-04-23T10:49:26.304Z,94848.11
2018-04-23T10:51:54.724Z,94846.42
2018-04-23T10:54:23.112Z,94843.45
2018-04-23T10:56:51.503Z,94843.98
2018-04-23T10:59:19.916Z,94844.98
2018-04-23T11:01:48.347Z,94843.14
2018-04-23T11:04:16.755Z,94841.41
2018-04-23T11:06:45.218Z,94844.53
2018-04-23T11:09:13.735Z,94842.44
2018-04-23T11:11:42.181Z,94843.41
2018-04-23T11:14:10.597Z,94840.61
2018-04-23T11:16:39.088Z,94835.79
2018-04-23T11:19:07.460Z,94831.81
2018-04-23T11:21:35.848Z,94831.69
2018-04-23T11:24:04.254Z,94829.06
2018-04-23T11:26:32.630Z,94826.25
2018-04-23T11:29:01.019Z,94832.84
2018-04-23T11:31:29.402Z,94827.05
2018-04-23T11:33:57.881Z,94822.59
2018-04-23T11:36:26.356Z,94830.95
2018-04-23T11:38:54.746Z,94825.86
2018-04-23T11:41:23.175Z,94829.30
2018-04-23T11:43:51.569Z,94824.91
2018-04-23T11:46:19.974Z,94828.44
2018-04-23T11:48:48.423Z,94820.16
2018-04-23T11:51:16.824Z,94818.56
2018-04-23T11:53:45.209Z,94820.80
2018-04-23T11:56:13.675Z,94815.71
2018-04-23T11:58:42.063Z,94808.20
2018-04-23T12:01:10.483Z,94811.52
2018-04-23T12:03:38.859Z,94801.06
2018-04-23T12:06:07.278Z,94796.92
2018-04-23T12:08:35.670Z,94794.72
2018-04-23T12:11:04.064Z,94795.91
2018-04-23T12:13:32.500Z,94794.91
2018-04-23T12:16:00.954Z,94787.92
2018-04-23T12:18:29.346Z,94784.33
2018-04-23T12:20:57.752Z,94796.15
2018-04-23T12:23:26.148Z,94792.38
2018-04-23T12:25:54.592Z,94787.61
2018-04-23T12:28:23.198Z,94781.33
2018-04-23T12:30:51.589Z,94776.48
2018-04-23T12:33:19.962Z,94770.97
2018-04-23T12:35:48.396Z,94767.20
2018-04-23T12:38:16.784Z,94760.28
2018-04-23T12:40:45.180Z,94764.61
2018-04-23T12:43:13.588Z,94759.94
2018-04-23T12:45:41.971Z,94760.37
2018-04-23T12:48:10.351Z,94757.97
2018-04-23T12:50:38.744Z,94756.19
2018-04-23T12:53:07.124Z,94759.28
2018-04-23T12:55:35.499Z,94758.30
2018-04-23T12:58:03.894Z,94747.09
2018-04-23T13:00:32.765Z,94746.94
2018-04-23T13:03:01.144Z,94750.86
2018-04-23T13:05:29.568Z,94741.39
2018-04-23T13:07:57.996Z,94740.30
2018-04-23T13:10:26.362Z,94732.17
2018-04-23T13:12:54.728Z,94740.27
2018-04-23T13:15:23.124Z,94731.05
2018-04-23T13:17:51.497Z,94726.04
2018-04-23T13:20:22.859Z,94730.53
2018-04-23T13:22:51.250Z,94728.79
2018-04-23T13:25:19.619Z,94728.28
2018-04-23T13:27:47.987Z,94731.00
2018-04-23T13:30:16.404Z,94727.23
2018-04-23T13:32:44.771Z,94725.96
2018-04-23T13:35:13.138Z,94720.73
2018-04-23T13:37:41.524Z,94728.70
2018-04-23T13:40:09.902Z,94723.26
2018-04-23T13:42:38.328Z,94716.25
2018-04-23T13:45:06.871Z,94718.94
2018-04-23T13:47:35.244Z,94721.59
2018-04-23T13:50:03.668Z,94706.91
2018-04-23T13:52:32.071Z,94706.30
2018-04-23T13:55:00.482Z,94712.42
2018-04-23T13:57:28.854Z,94710.30
2018-04-23T13:59:57.248Z,94711.63
2018-04-23T14:02:25.636Z,94713.79
2018-04-23T14:04:53.990Z,94708.56
2018-04-23T14:07:22.407Z,94713.05
2018-04-23T14:09:50.811Z,94708.86
2018-04-23T14:12:19.265Z,94705.65
2018-04-23T14:14:47.635Z,94708.20
2018-04-23T14:17:16.004Z,94712.69
2018-04-23T14:19:44.362Z,94709.41
2018-04-23T14:22:12.756Z,94719.09
2018-04-23T14:24:41.125Z,94717.60
2018-04-23T14:27:09.491Z,94708.50
2018-04-23T14:29:37.909Z,94705.52
2018-04-23T14:32:06.284Z,94710.39
2018-04-23T14:34:34.655Z,94706.98
2018-04-23T14:37:03.035Z,94706.11
2018-04-23T14:39:31.423Z,94699.78
2018-04-23T14:41:59.815Z,94697.02
2018-04-23T14:44:28.194Z,94694.33
2018-04-23T14:46:56.581Z,94696.07
2018-04-23T14:49:24.971Z,94698.30
2018-04-23T14:51:53.538Z,94687.14
2018-04-23T14:54:21.909Z,94692.39
2018-04-23T14:56:50.275Z,94698.67
2018-04-23T14:59:18.682Z,94693.64
2018-04-23T15:01:47.106Z,94709.52
2018-04-23T15:04:15.491Z,94700.89
2018-04-23T15:06:43.870Z,94698.00
2018-04-23T15:09:14.116Z,94700.98
2018-04-23T15:11:42.537Z,94704.28
2018-04-23T15:14:11.926Z,94700.70
2018-04-23T15:16:40.312Z,94703.59
2018-04-23T15:19:08.554Z,94703.98
2018-04-23T15:21:36.926Z,94696.77
2018-04-23T15:24:05.318Z,94701.83
2018-04-23T15:26:33.700Z,94697.98
2018-04-23T15:29:02.078Z,94691.67
2018-04-23T15:31:30.493Z,94698.94
2018-04-23T15:33:58.952Z,94695.44
2018-04-23T15:36:27.384Z,94695.69
2018-04-23T15:38:55.799Z,94696.56
2018-04-23T15:41:24.224Z,94703.56
2018-04-23T15:43:52.665Z,94700.52
2018-04-23T15:46:21.103Z,94703.39
2018-04-23T15:48:49.475Z,94711.59
2018-04-23T15:51:17.927Z,94701.60
2018-04-23T15:53:46.309Z,94704.38
2018-04-23T15:56:14.726Z,94713.19
2018-04-23T15:58:43.098Z,94714.92
2018-04-23T16:01:11.506Z,94707.05
2018-04-23T16:03:39.907Z,94709.39
2018-04-23T16:06:08.282Z,94723.77
2018-04-23T16:08:36.470Z,94720.74
2018-04-23T16:11:04.847Z,94721.83
2018-04-23T16:13:33.270Z,94728.88
2018-04-23T16:16:01.662Z,94722.63
2018-04-23T16:18:30.111Z,94726.77
2018-04-23T16:20:58.633Z,94727.34
2018-04-23T16:23:27.007Z,94727.34
2018-04-23T16:25:55.370Z,94734.90
2018-04-23T16:28:23.789Z,94742.88
2018-04-23T16:30:52.199Z,94739.53
2018-04-23T16:33:21.011Z,94744.39
2018-04-23T16:35:49.418Z,94753.47
2018-04-23T16:38:17.840Z,94761.08
2018-04-23T16:40:46.292Z,94757.05
2018-04-23T16:43:14.717Z,94759.00
2018-04-23T16:45:43.103Z,94756.13
2018-04-23T16:48:11.490Z,94760.70
2018-04-23T16:50:39.865Z,94762.81
2018-04-23T16:53:08.222Z,94762.22
2018-04-23T16:55:38.770Z,94769.75
2018-04-23T16:58:07.144Z,94774.13
2018-04-23T17:00:35.522Z,94775.41
2018-04-23T17:03:03.965Z,94777.96
2018-04-23T17:05:32.404Z,94773.88
2018-04-23T17:08:00.805Z,94783.58
2018-04-23T17:10:29.382Z,94780.22
2018-04-23T17:12:57.922Z,94781.98
2018-04-23T17:15:26.344Z,94787.39
2018-04-23T17:17:54.801Z,94784.18
2018-04-23T17:20:23.182Z,94785.86
2018-04-23T17:22:51.659Z,94789.40
2018-04-23T17:25:20.064Z,94794.01
2018-04-23T17:27:48.449Z,94799.00
2018-04-23T17:30:18.265Z,94801.83
2018-04-23T17:32:46.700Z,94808.30
2018-04-23T17:35:15.075Z,94808.75
2018-04-23T17:37:43.445Z,94815.70
2018-04-23T17:40:11.877Z,94815.20
2018-04-23T17:42:40.278Z,94820.69
2018-04-23T17:45:09.198Z,94821.46
2018-04-23T17:47:37.628Z,94825.07
2018-04-23T17:50:06.051Z,94825.37
2018-04-23T17:52:34.531Z,94826.63
2018-04-23T17:55:03.069Z,94832.27
2018-04-23T17:57:31.524Z,94832.80
2018-04-23T17:59:59.946Z,94829.32
2018-04-23T18:02:28.935Z,94834.13
2018-04-23T18:04:57.381Z,94833.39
2018-04-23T18:07:25.767Z,94833.13
2018-04-23T18:09:54.211Z,94836.62
2018-04-23T18:12:22.601Z,94837.55
2018-04-23T18:14:51.147Z,94840.09
2018-04-23T18:17:19.590Z,94845.19
2018-04-23T18:19:48.100Z,94845.72
2018-04-23T18:22:16.543Z,94853.86
2018-04-23T18:24:45.053Z,94848.91
2018-04-23T18:27:13.436Z,94850.53
2018-04-23T18:29:41.877Z,94853.72
2018-04-23T18:32:10.365Z,94856.13
2018-04-23T18:34:38.745Z,94855.86
2018-04-23T18:37:07.815Z,94856.36
2018-04-23T18:39:36.183Z,94859.95
2018-04-23T18:42:04.617Z,94862.16
2018-04-23T18:44:33.007Z,94865.05
2018-04-23T18:47:01.455Z,94866.22
2018-04-23T18:49:30.668Z,94870.01
2018-04-23T18:51:59.110Z,94873.31
2018-04-23T18:54:28.390Z,94875.39
2018-04-23T18:56:57.463Z,94872.73
2018-04-23T18:59:25.665Z,94870.94
2018-04-23T19:01:55.076Z,94874.48
2018-04-23T19:04:23.498Z,94879.39
2018-04-23T19:06:51.986Z,94877.99
2018-04-23T19:09:20.383Z,94887.04
2018-04-23T19:11:48.854Z,94883.00
2018-04-23T19:14:17.234Z,94885.75
2018-04-23T19:16:45.663Z,94885.04
2018-04-23T19:19:14.778Z,94883.53
2018-04-23T19:21:43.280Z,94884.96
2018-04-23T19:24:11.450Z,94883.30
2018-04-23T19:26:39.867Z,94883.92
2018-04-23T19:29:08.253Z,94889.50
2018-04-23T19:31:36.678Z,94887.83
2018-04-23T19:34:05.062Z,94889.81
2018-04-23T19:36:33.486Z,94889.63
2018-04-23T19:39:01.961Z,94886.84
2018-04-23T19:41:30.339Z,94890.89
2018-04-23T19:43:58.771Z,94890.14
2018-04-23T19:46:27.402Z,94890.78
2018-04-23T19:48:55.786Z,94898.05
2018-04-23T19:51:24.179Z,94896.16
2018-04-23T19:53:52.572Z,94897.20
2018-04-23T19:56:20.966Z,94898.28
2018-04-23T19:58:49.383Z,94899.58
2018-04-23T20:01:17.766Z,94899.55
2018-04-23T20:03:46.146Z,94900.95
2018-04-23T20:06:14.535Z,94901.20
2018-04-23T20:08:42.910Z,94895.56
2018-04-23T20:11:11.286Z,94901.16
2018-04-23T20:13:40.696Z,94903.38
2018-04-23T20:16:09.179Z,94899.72
2018-04-23T20:18:37.557Z,94903.45
2018-04-23T20:21:06.066Z,94905.95
2018-04-23T20:23:35.245Z,94899.72
2018-04-23T20:26:04.642Z,94904.10
2018-04-23T20:28:33.020Z,94907.69
2018-04-23T20:31:01.422Z,94905.83
2018-04-23T20:33:29.811Z,94906.99
2018-04-23T20:35:58.518Z,94909.00
2018-04-23T20:38:26.685Z,94909.81
2018-04-23T20:40:55.105Z,94907.76
2018-04-23T20:43:23.487Z,94906.91
2018-04-23T20:45:51.858Z,94913.87
2018-04-23T20:48:20.253Z,94911.05
2018-04-23T20:50:48.647Z,94911.45
2018-04-23T20:53:17.033Z,94911.23
2018-04-23T20:55:45.433Z,94914.59
2018-04-23T20:58:13.806Z,94917.21
2018-04-23T21:00:42.231Z,94913.17
2018-04-23T21:03:10.623Z,94917.34
2018-04-23T21:05:39.031Z,94916.72
2018-04-23T21:08:07.417Z,94921.12
2018-04-23T21:10:35.799Z,94921.19
2018-04-23T21:13:04.165Z,94924.53
2018-04-23T21:15:32.575Z,94924.48
2018-04-23T21:18:01.268Z,94929.90
2018-04-23T21:20:29.702Z,94929.23
2018-04-23T21:22:58.084Z,94926.75
2018-04-23T21:25:26.520Z,94931.14
2018-04-23T21:27:54.732Z,94926.94
2018-04-23T21:30:23.297Z,94930.80
2018-04-23T21:32:51.696Z,94934.07
2018-04-23T21:35:20.074Z,94931.89
2018-04-23T21:37:48.476Z,94934.81
2018-04-23T21:40:16.851Z,94936.66
2018-04-23T21:42:45.249Z,94942.74
2018-04-23T21:45:13.662Z,94943.61
2018-04-23T21:47:42.046Z,94945.00
2018-04-23T21:50:10.431Z,94939.63
2018-04-23T21:52:38.823Z,94944.47
2018-04-23T21:55:07.208Z,94940.95
2018-04-23T21:57:35.591Z,94944.12
2018-04-23T22:00:05.366Z,94942.34
2018-04-23T22:02:33.771Z,94950.38
2018-04-23T22:05:02.324Z,94947.56
2018-04-23T22:07:30.714Z,94951.20
2018-04-23T22:09:59.110Z,94953.09
2018-04-23T22:12:27.474Z,94956.50
2018-04-23T22:14:55.851Z,94959.38
2018-04-23T22:17:24.042Z,94955.52
2018-04-23T22:19:52.584Z,94952.41
2018-04-23T22:22:20.966Z,94949.46
2018-04-23T22:24:49.374Z,94951.66
2018-04-23T22:27:17.735Z,94947.86
2018-04-23T22:29:46.108Z,94948.13
2018-04-23T22:32:14.500Z,94953.00
2018-04-23T22:34:43.062Z,94949.87
2018-04-23T22:37:11.476Z,94950.91
2018-04-23T22:39:40.008Z,94951.16
2018-04-23T22:42:08.382Z,94946.19
2018-04-23T22:44:36.783Z,94943.36
2018-04-23T22:47:05.171Z,94944.45
2018-04-23T22:49:33.583Z,94948.08
2018-04-23T22:52:01.958Z,94940.88
2018-04-23T22:54:30.371Z,94945.00
2018-04-23T22:56:58.748Z,94946.73
2018-04-23T22:59:27.166Z,94941.11
2018-04-23T23:01:55.546Z,94937.05
2018-04-23T23:04:23.903Z,94939.04
2018-04-23T23:06:53.247Z,94937.31
2018-04-23T23:09:21.611Z,94936.22
2018-04-23T23:14:24.663Z,94938.05
2018-04-23T23:16:53.149Z,94937.48
2018-04-23T23:19:21.795Z,94938.59
2018-04-23T23:21:50.200Z,94937.20
2018-04-23T23:24:18.557Z,94936.38
2018-04-23T23:26:46.739Z,94934.73
2018-04-23T23:29:15.111Z,94931.70
2018-04-23T23:31:43.528Z,94936.18
2018-04-23T23:34:11.939Z,94930.08
2018-04-23T23:36:40.316Z,94942.73
2018-04-23T23:39:08.755Z,94935.02
2018-04-23T23:41:37.130Z,94939.34
2018-04-23T23:44:05.531Z,94936.36
2018-04-23T23:46:33.908Z,94941.97
2018-04-23T23:49:02.326Z,94934.55
2018-04-23T23:51:30.707Z,94936.12
2018-04-23T23:53:59.118Z,94932.80
2018-04-23T23:56:27.518Z,94936.12
2018-04-23T23:58:55.927Z,94934.52
